Huntsville's Hourly Summary for Wednesday, July 11, 2018
Hour Temp
(f)
RH
(%)
Solar Rad.
(MJ/m2)
Rainfall
(in)
Wind
(mph)
7/11/2018 12:00 AM 77 80 0 0 0.74
7/11/2018 1:00 AM 76 82 0 0 0.17
7/11/2018 2:00 AM 75 84 0 0 0
7/11/2018 3:00 AM 74 86 0 0 0.19
7/11/2018 4:00 AM 73 87 0 0 0.09
7/11/2018 5:00 AM 73 89 0 0 0
7/11/2018 6:00 AM 72 89 0.01 0 0.01
7/11/2018 7:00 AM 72 89 0.15 0 0.53
7/11/2018 8:00 AM 74 85 0.57 0 1.88
7/11/2018 9:00 AM 78 77 1.14 0 3.12
7/11/2018 10:00 AM 80 67 1.62 0 2.71
7/11/2018 11:00 AM 82 61 2.53 0 2.71
7/11/2018 12:00 PM 86 48 3.14 0 1.84
7/11/2018 1:00 PM 87 47 2.93 0 2.56
7/11/2018 2:00 PM 88 48 3.3 0 2.79
7/11/2018 3:00 PM 88 47 2.23 0 2.17
7/11/2018 4:00 PM 89 47 2.13 0 2.19
7/11/2018 5:00 PM 89 46 1.72 0 1.99
7/11/2018 6:00 PM 89 39 1 0 1.35
7/11/2018 7:00 PM 87 41 0.32 0 0.22
7/11/2018 8:00 PM 83 52 0.03 0 0
7/11/2018 9:00 PM 80 68 0 0 0.2
7/11/2018 10:00 PM 79 70 0 0 0.02
7/11/2018 11:00 PM 79 74 0 0 0.09
Data Summary 80 66 22.82 0.00 1.15